sensor_id;sensor_type;location;lat;lon;timestamp;temperature;humidity
35523;DHT22;61478;50.820;4.330;2023-06-22T00:07:32;22.80;99.90
35523;DHT22;61478;50.820;4.330;2023-06-22T00:24:18;22.80;99.90
35523;DHT22;61478;50.820;4.330;2023-06-22T00:30:40;23.00;99.90
35523;DHT22;61478;50.820;4.330;2023-06-22T00:33:43;23.20;99.90
35523;DHT22;61478;50.820;4.330;2023-06-22T00:43:35;23.20;99.90
35523;DHT22;61478;50.820;4.330;2023-06-22T00:49:56;22.40;99.90
35523;DHT22;61478;50.820;4.330;2023-06-22T00:56:23;22.10;99.90
35523;DHT22;61478;50.820;4.330;2023-06-22T00:59:45;22.30;99.90
35523;DHT22;61478;50.820;4.330;2023-06-22T01:31:03;22.10;99.90
35523;DHT22;61478;50.820;4.330;2023-06-22T01:51:50;21.50;99.90
35523;DHT22;61478;50.820;4.330;2023-06-22T01:55:02;21.40;99.90
35523;DHT22;61478;50.820;4.330;2023-06-22T01:57:33;21.60;99.90
35523;DHT22;61478;50.820;4.330;2023-06-22T05:28:52;22.20;99.90
35523;DHT22;61478;50.820;4.330;2023-06-22T05:35:37;21.50;99.90
35523;DHT22;61478;50.820;4.330;2023-06-22T05:52:30;21.40;99.90
35523;DHT22;61478;50.820;4.330;2023-06-22T06:02:16;21.60;99.90
35523;DHT22;61478;50.820;4.330;2023-06-22T06:05:40;21.60;99.90
35523;DHT22;61478;50.820;4.330;2023-06-22T06:21:37;21.30;99.90
35523;DHT22;61478;50.820;4.330;2023-06-22T06:28:22;21.40;99.90
35523;DHT22;61478;50.820;4.330;2023-06-22T06:31:15;21.40;99.90
35523;DHT22;61478;50.820;4.330;2023-06-22T06:34:03;21.50;99.90
35523;DHT22;61478;50.820;4.330;2023-06-22T06:36:32;21.60;99.90
35523;DHT22;61478;50.820;4.330;2023-06-22T06:39:02;21.70;99.90
35523;DHT22;61478;50.820;4.330;2023-06-22T06:41:30;21.80;99.90
35523;DHT22;61478;50.820;4.330;2023-06-22T06:44:25;21.80;99.90
35523;DHT22;61478;50.820;4.330;2023-06-22T06:46:54;21.70;99.90
35523;DHT22;61478;50.820;4.330;2023-06-22T06:49:21;21.80;99.90
35523;DHT22;61478;50.820;4.330;2023-06-22T06:57:24;22.00;99.90
35523;DHT22;61478;50.820;4.330;2023-06-22T07:00:14;22.20;99.90
35523;DHT22;61478;50.820;4.330;2023-06-22T07:02:52;22.20;99.90
35523;DHT22;61478;50.820;4.330;2023-06-22T07:05:36;22.20;99.90
35523;DHT22;61478;50.820;4.330;2023-06-22T07:08:25;22.40;99.90
35523;DHT22;61478;50.820;4.330;2023-06-22T07:14:39;22.30;99.90
35523;DHT22;61478;50.820;4.330;2023-06-22T07:17:16;22.30;99.90
35523;DHT22;61478;50.820;4.330;2023-06-22T07:19:55;22.30;99.90
35523;DHT22;61478;50.820;4.330;2023-06-22T07:25:46;22.30;99.90
35523;DHT22;61478;50.820;4.330;2023-06-22T07:28:38;22.40;99.90
35523;DHT22;61478;50.820;4.330;2023-06-22T07:31:58;22.60;99.90
35523;DHT22;61478;50.820;4.330;2023-06-22T07:35:07;22.70;99.90
35523;DHT22;61478;50.820;4.330;2023-06-22T07:37:52;22.70;99.90
35523;DHT22;61478;50.820;4.330;2023-06-22T07:47:16;22.60;99.90
35523;DHT22;61478;50.820;4.330;2023-06-22T07:53:32;22.70;99.90
35523;DHT22;61478;50.820;4.330;2023-06-22T07:56:20;22.70;99.90
35523;DHT22;61478;50.820;4.330;2023-06-22T07:58:47;22.90;99.90
35523;DHT22;61478;50.820;4.330;2023-06-22T08:01:17;22.90;99.90
35523;DHT22;61478;50.820;4.330;2023-06-22T08:03:49;22.90;99.90
35523;DHT22;61478;50.820;4.330;2023-06-22T08:06:22;23.10;99.90
35523;DHT22;61478;50.820;4.330;2023-06-22T08:08:54;23.10;99.90
35523;DHT22;61478;50.820;4.330;2023-06-22T08:11:49;23.10;99.90
35523;DHT22;61478;50.820;4.330;2023-06-22T08:14:33;23.20;99.90
35523;DHT22;61478;50.820;4.330;2023-06-22T08:17:04;23.40;99.90
35523;DHT22;61478;50.820;4.330;2023-06-22T08:19:37;23.40;99.90
35523;DHT22;61478;50.820;4.330;2023-06-22T08:22:23;23.20;99.90
35523;DHT22;61478;50.820;4.330;2023-06-22T08:25:20;23.10;99.90
35523;DHT22;61478;50.820;4.330;2023-06-22T08:54:57;23.00;99.90
35523;DHT22;61478;50.820;4.330;2023-06-22T08:57:59;22.90;99.90
35523;DHT22;61478;50.820;4.330;2023-06-22T09:11:06;22.60;99.90
35523;DHT22;61478;50.820;4.330;2023-06-22T09:23:45;22.80;99.90
35523;DHT22;61478;50.820;4.330;2023-06-22T09:26:40;22.90;99.90
35523;DHT22;61478;50.820;4.330;2023-06-22T10:09:10;21.40;99.90
35523;DHT22;61478;50.820;4.330;2023-06-22T10:15:37;21.60;99.90
35523;DHT22;61478;50.820;4.330;2023-06-22T10:18:46;21.50;99.90
35523;DHT22;61478;50.820;4.330;2023-06-22T10:21:33;21.50;99.90
35523;DHT22;61478;50.820;4.330;2023-06-22T10:30:58;21.30;99.90
35523;DHT22;61478;50.820;4.330;2023-06-22T10:40:31;21.10;99.90
35523;DHT22;61478;50.820;4.330;2023-06-22T10:43:29;21.10;99.90
35523;DHT22;61478;50.820;4.330;2023-06-22T10:57:27;20.90;99.90
35523;DHT22;61478;50.820;4.330;2023-06-22T11:20:44;21.30;99.90
35523;DHT22;61478;50.820;4.330;2023-06-22T11:23:25;21.30;99.90
35523;DHT22;61478;50.820;4.330;2023-06-22T11:25:54;21.30;99.90
35523;DHT22;61478;50.820;4.330;2023-06-22T11:28:20;21.20;99.90
35523;DHT22;61478;50.820;4.330;2023-06-22T11:30:51;21.20;99.90
35523;DHT22;61478;50.820;4.330;2023-06-22T11:33:18;21.10;99.90
35523;DHT22;61478;50.820;4.330;2023-06-22T11:36:04;21.20;99.90
35523;DHT22;61478;50.820;4.330;2023-06-22T11:48:58;21.20;99.90
35523;DHT22;61478;50.820;4.330;2023-06-22T11:51:48;21.10;99.90
35523;DHT22;61478;50.820;4.330;2023-06-22T11:54:43;21.10;99.90
35523;DHT22;61478;50.820;4.330;2023-06-22T11:57:09;21.20;99.90
35523;DHT22;61478;50.820;4.330;2023-06-22T11:59:42;21.20;99.90
35523;DHT22;61478;50.820;4.330;2023-06-22T12:02:11;21.10;99.90
35523;DHT22;61478;50.820;4.330;2023-06-22T12:04:37;21.20;99.90
35523;DHT22;61478;50.820;4.330;2023-06-22T12:07:04;21.20;99.90
35523;DHT22;61478;50.820;4.330;2023-06-22T12:09:42;21.20;99.90
35523;DHT22;61478;50.820;4.330;2023-06-22T12:12:10;21.20;99.90
35523;DHT22;61478;50.820;4.330;2023-06-22T12:14:45;21.10;99.90
35523;DHT22;61478;50.820;4.330;2023-06-22T12:17:18;21.00;99.90
35523;DHT22;61478;50.820;4.330;2023-06-22T12:20:08;21.10;99.90
35523;DHT22;61478;50.820;4.330;2023-06-22T12:22:38;21.00;99.90
35523;DHT22;61478;50.820;4.330;2023-06-22T12:25:10;21.00;99.90
35523;DHT22;61478;50.820;4.330;2023-06-22T12:27:39;21.10;99.90
35523;DHT22;61478;50.820;4.330;2023-06-22T12:30:08;21.20;99.90
35523;DHT22;61478;50.820;4.330;2023-06-22T12:32:34;21.20;99.90
35523;DHT22;61478;50.820;4.330;2023-06-22T12:35:12;21.10;99.90
35523;DHT22;61478;50.820;4.330;2023-06-22T12:37:43;21.00;99.90
35523;DHT22;61478;50.820;4.330;2023-06-22T12:40:10;20.90;99.90
35523;DHT22;61478;50.820;4.330;2023-06-22T12:42:47;20.90;99.90
35523;DHT22;61478;50.820;4.330;2023-06-22T12:45:16;21.10;99.90
35523;DHT22;61478;50.820;4.330;2023-06-22T12:48:11;21.20;99.90
35523;DHT22;61478;50.820;4.330;2023-06-22T12:50:40;21.30;99.90
35523;DHT22;61478;50.820;4.330;2023-06-22T12:53:40;21.30;99.90
35523;DHT22;61478;50.820;4.330;2023-06-22T12:56:15;21.30;99.90
35523;DHT22;61478;50.820;4.330;2023-06-22T13:01:39;21.30;99.90
35523;DHT22;61478;50.820;4.330;2023-06-22T13:07:44;21.30;99.90
35523;DHT22;61478;50.820;4.330;2023-06-22T13:10:34;21.30;99.90
35523;DHT22;61478;50.820;4.330;2023-06-22T13:13:04;21.40;99.90
35523;DHT22;61478;50.820;4.330;2023-06-22T13:16:00;21.40;99.90
35523;DHT22;61478;50.820;4.330;2023-06-22T13:18:44;21.40;99.90
35523;DHT22;61478;50.820;4.330;2023-06-22T13:21:16;21.50;99.90
35523;DHT22;61478;50.820;4.330;2023-06-22T13:24:20;21.40;99.90
35523;DHT22;61478;50.820;4.330;2023-06-22T13:27:11;21.40;99.90
35523;DHT22;61478;50.820;4.330;2023-06-22T13:29:49;21.30;99.90
35523;DHT22;61478;50.820;4.330;2023-06-22T13:32:17;21.30;99.90
35523;DHT22;61478;50.820;4.330;2023-06-22T13:34:55;21.20;99.90
35523;DHT22;61478;50.820;4.330;2023-06-22T13:37:41;21.10;99.90
35523;DHT22;61478;50.820;4.330;2023-06-22T13:41:06;21.10;99.90
35523;DHT22;61478;50.820;4.330;2023-06-22T13:43:56;21.00;99.90
35523;DHT22;61478;50.820;4.330;2023-06-22T13:46:34;21.10;99.90
35523;DHT22;61478;50.820;4.330;2023-06-22T13:49:05;21.00;99.90
35523;DHT22;61478;50.820;4.330;2023-06-22T13:51:43;21.00;99.90
35523;DHT22;61478;50.820;4.330;2023-06-22T13:54:16;21.10;99.90
35523;DHT22;61478;50.820;4.330;2023-06-22T13:57:11;21.10;99.90
35523;DHT22;61478;50.820;4.330;2023-06-22T14:00:01;21.10;99.90
35523;DHT22;61478;50.820;4.330;2023-06-22T14:05:41;21.10;99.90
35523;DHT22;61478;50.820;4.330;2023-06-22T14:08:37;21.10;99.90
35523;DHT22;61478;50.820;4.330;2023-06-22T14:14:31;21.10;99.90
35523;DHT22;61478;50.820;4.330;2023-06-22T14:17:16;21.00;99.90
35523;DHT22;61478;50.820;4.330;2023-06-22T14:23:24;20.90;99.90
35523;DHT22;61478;50.820;4.330;2023-06-22T14:26:24;20.90;99.90
35523;DHT22;61478;50.820;4.330;2023-06-22T14:35:36;21.10;99.90
35523;DHT22;61478;50.820;4.330;2023-06-22T14:41:52;21.20;99.90
35523;DHT22;61478;50.820;4.330;2023-06-22T14:47:50;21.10;99.90
35523;DHT22;61478;50.820;4.330;2023-06-22T14:50:54;21.00;99.90
35523;DHT22;61478;50.820;4.330;2023-06-22T14:54:01;21.10;99.90
35523;DHT22;61478;50.820;4.330;2023-06-22T15:03:05;21.10;99.90
35523;DHT22;61478;50.820;4.330;2023-06-22T15:05:46;21.20;99.90
35523;DHT22;61478;50.820;4.330;2023-06-22T15:25:04;21.50;99.90
35523;DHT22;61478;50.820;4.330;2023-06-22T15:31:33;21.50;99.90
35523;DHT22;61478;50.820;4.330;2023-06-22T15:34:00;21.50;99.90
35523;DHT22;61478;50.820;4.330;2023-06-22T15:36:34;21.50;99.90
35523;DHT22;61478;50.820;4.330;2023-06-22T15:39:08;21.60;99.90
35523;DHT22;61478;50.820;4.330;2023-06-22T15:41:46;21.60;99.90
35523;DHT22;61478;50.820;4.330;2023-06-22T15:44:26;21.60;99.90
35523;DHT22;61478;50.820;4.330;2023-06-22T15:47:16;21.70;99.90
35523;DHT22;61478;50.820;4.330;2023-06-22T15:49:48;21.70;99.90
35523;DHT22;61478;50.820;4.330;2023-06-22T15:52:39;21.70;99.90
35523;DHT22;61478;50.820;4.330;2023-06-22T15:55:30;21.80;99.90
35523;DHT22;61478;50.820;4.330;2023-06-22T15:58:03;21.80;99.90
35523;DHT22;61478;50.820;4.330;2023-06-22T16:00:45;21.80;99.90
35523;DHT22;61478;50.820;4.330;2023-06-22T16:03:39;21.80;99.90
35523;DHT22;61478;50.820;4.330;2023-06-22T16:06:25;21.80;99.90
35523;DHT22;61478;50.820;4.330;2023-06-22T16:09:19;21.90;99.90
35523;DHT22;61478;50.820;4.330;2023-06-22T16:11:48;21.90;99.90
35523;DHT22;61478;50.820;4.330;2023-06-22T16:14:45;21.90;99.90
35523;DHT22;61478;50.820;4.330;2023-06-22T16:17:16;22.00;99.90
35523;DHT22;61478;50.820;4.330;2023-06-22T16:23:14;22.20;99.90
35523;DHT22;61478;50.820;4.330;2023-06-22T16:25:51;22.20;99.90
35523;DHT22;61478;50.820;4.330;2023-06-22T16:28:50;22.10;99.90
35523;DHT22;61478;50.820;4.330;2023-06-22T16:31:24;21.70;99.90
35523;DHT22;61478;50.820;4.330;2023-06-22T16:33:53;21.70;99.90
35523;DHT22;61478;50.820;4.330;2023-06-22T16:36:28;21.80;99.90
35523;DHT22;61478;50.820;4.330;2023-06-22T16:39:03;21.80;99.90
35523;DHT22;61478;50.820;4.330;2023-06-22T16:41:40;22.00;99.90
35523;DHT22;61478;50.820;4.330;2023-06-22T16:44:13;22.00;99.90
35523;DHT22;61478;50.820;4.330;2023-06-22T16:47:09;22.10;99.90
35523;DHT22;61478;50.820;4.330;2023-06-22T16:53:06;22.00;99.90
35523;DHT22;61478;50.820;4.330;2023-06-22T16:56:12;22.10;99.90
35523;DHT22;61478;50.820;4.330;2023-06-22T16:59:06;22.00;99.90
35523;DHT22;61478;50.820;4.330;2023-06-22T17:01:57;22.10;99.90
35523;DHT22;61478;50.820;4.330;2023-06-22T17:08:20;22.30;99.90
35523;DHT22;61478;50.820;4.330;2023-06-22T17:11:09;22.40;99.90
35523;DHT22;61478;50.820;4.330;2023-06-22T17:17:12;22.30;99.90
35523;DHT22;61478;50.820;4.330;2023-06-22T17:20:15;22.30;99.90
35523;DHT22;61478;50.820;4.330;2023-06-22T17:30:54;22.30;99.90
35523;DHT22;61478;50.820;4.330;2023-06-22T17:34:20;22.30;99.90
35523;DHT22;61478;50.820;4.330;2023-06-22T17:44:12;22.40;99.90
35523;DHT22;61478;50.820;4.330;2023-06-22T17:51:21;22.40;99.90
35523;DHT22;61478;50.820;4.330;2023-06-22T17:54:36;22.50;99.90
35523;DHT22;61478;50.820;4.330;2023-06-22T18:01:13;22.40;99.90
35523;DHT22;61478;50.820;4.330;2023-06-22T18:04:18;22.30;99.90
35523;DHT22;61478;50.820;4.330;2023-06-22T18:32:03;22.60;99.90
35523;DHT22;61478;50.820;4.330;2023-06-22T18:35:16;22.60;99.90
35523;DHT22;61478;50.820;4.330;2023-06-22T18:38:04;22.60;99.90
35523;DHT22;61478;50.820;4.330;2023-06-22T18:51:30;22.70;99.90
35523;DHT22;61478;50.820;4.330;2023-06-22T18:58:11;22.70;99.90
35523;DHT22;61478;50.820;4.330;2023-06-22T19:22:19;21.90;99.90
35523;DHT22;61478;50.820;4.330;2023-06-22T19:31:42;21.40;99.90
35523;DHT22;61478;50.820;4.330;2023-06-22T19:49:00;20.80;99.90
35523;DHT22;61478;50.820;4.330;2023-06-22T19:59:13;21.00;99.90
35523;DHT22;61478;50.820;4.330;2023-06-22T20:02:09;21.00;99.90
35523;DHT22;61478;50.820;4.330;2023-06-22T20:07:56;21.00;99.90
35523;DHT22;61478;50.820;4.330;2023-06-22T20:14:41;20.80;99.90
35523;DHT22;61478;50.820;4.330;2023-06-22T20:17:17;20.80;99.90
35523;DHT22;61478;50.820;4.330;2023-06-22T20:20:04;20.70;99.90
35523;DHT22;61478;50.820;4.330;2023-06-22T20:22:44;20.70;99.90
35523;DHT22;61478;50.820;4.330;2023-06-22T20:32:57;20.40;99.90
35523;DHT22;61478;50.820;4.330;2023-06-22T20:35:43;20.40;99.90
35523;DHT22;61478;50.820;4.330;2023-06-22T20:38:55;20.40;99.90
35523;DHT22;61478;50.820;4.330;2023-06-22T20:41:40;20.50;99.90
35523;DHT22;61478;50.820;4.330;2023-06-22T20:44:31;20.50;99.90
35523;DHT22;61478;50.820;4.330;2023-06-22T20:50:31;20.70;99.90
35523;DHT22;61478;50.820;4.330;2023-06-22T20:53:36;20.70;99.90
35523;DHT22;61478;50.820;4.330;2023-06-22T20:56:25;20.50;99.90
35523;DHT22;61478;50.820;4.330;2023-06-22T21:03:25;20.40;99.90
35523;DHT22;61478;50.820;4.330;2023-06-22T21:06:11;20.50;99.90
35523;DHT22;61478;50.820;4.330;2023-06-22T21:09:03;20.30;99.90
35523;DHT22;61478;50.820;4.330;2023-06-22T21:11:41;20.30;99.90
35523;DHT22;61478;50.820;4.330;2023-06-22T21:14:54;20.10;99.90
35523;DHT22;61478;50.820;4.330;2023-06-22T21:17:59;20.00;99.90
35523;DHT22;61478;50.820;4.330;2023-06-22T21:20:42;19.90;99.90
35523;DHT22;61478;50.820;4.330;2023-06-22T21:30:11;20.10;99.90
35523;DHT22;61478;50.820;4.330;2023-06-22T21:36:13;20.00;99.90
35523;DHT22;61478;50.820;4.330;2023-06-22T21:39:03;20.00;99.90
35523;DHT22;61478;50.820;4.330;2023-06-22T21:41:41;20.10;99.90
35523;DHT22;61478;50.820;4.330;2023-06-22T21:44:11;20.00;99.90
35523;DHT22;61478;50.820;4.330;2023-06-22T21:46:57;19.80;99.90
35523;DHT22;61478;50.820;4.330;2023-06-22T21:49:54;19.70;99.90
35523;DHT22;61478;50.820;4.330;2023-06-22T21:52:20;19.70;99.90
35523;DHT22;61478;50.820;4.330;2023-06-22T21:55:05;19.90;99.90
35523;DHT22;61478;50.820;4.330;2023-06-22T21:57:53;19.70;99.90
35523;DHT22;61478;50.820;4.330;2023-06-22T22:00:52;19.70;99.90
35523;DHT22;61478;50.820;4.330;2023-06-22T22:27:34;19.20;99.90
